Hampton, NH

9:25 AM EDT on August 29, 2015 (GMT -0400)
Hampton Airfield 7B3 | | Change Station
CLOSE
Current Station
Personal Weather Station
Location: North Hampton, NH
Elevation: 93 ft
Nearby Weather Stations

Elev 93 ft 42.96 °N, 70.83 °W | Updated 10 minutes ago

Partly Cloudy
Partly Cloudy
67.2 °F
Feels Like 67.2 °F
N
3.0
Wind Variable Wind from West
Gusts 6.0 mph

Today
High -- | Low -- °F
--% Chance of Precip.
Yesterday
High -- | Low -- °F
Precip. -- in
6:04 AM 7:23 PM
Full, 100% visible
Pressure 30.18 in
Visibility 10.0 miles
Clouds Mostly Cloudy 25000 ft
Dew Point 60 °F
Humidity 77%
Rainfall 0.00 in
Snow Depth Not available.
UV 2 out of 12
Pollen 7.90 out of 12
Air Quality Not available.
Flu Activity Not available.
METAR KPSM 291258Z 28004KT 10SM BKN250 19/14 A3017 RMK AO2A SLP219 T01870139
Pressure 30.18 in
Visibility 10.0 miles
Clouds Mostly Cloudy 25000 ft
Dew Point 60 °F
Humidity 77%
Rainfall 0.00 in
Snow Depth Not available.
UV 2 out of 12
Pollen 7.90 out of 12
Air Quality Not available.
Flu Activity Not available.
METAR KPSM 291258Z 28004KT 10SM BKN250 19/14 A3017 RMK AO2A SLP219 T01870139

10-Day Weather Forecast

×

Almanac

Astronomy

Aug. 29, 2015 Rise Set
Actual Time
Civil Twilight
Nautical Twilight
Astronomical Twilight
Moon
Length of Visible Light
Length of Day
Tomorrow will be .
, % of the Moon is Illuminated

Today's Extremes

State Highs State Lows

Community

WunderPhotos

Upload Photos

1,850,686 photos uploaded!

WunderBlogs® & News

Nearby

Air Quality

  Air Quality AQ Index Pollutant
Not available.

Snow Depth

Station Depth Elevation

Earthquake Activity

City Distance Mag. Time & Date
Minimum magnitude displayed is 2.5.

Coastal Water Temperatures

Place Temperature

Stations

Nearby Weather Stations

Station Location Temp. Windchill Dew Point Humidity Wind Precip. Elev Updated Type